createdAt,value
2022-12-01T15:50:49.501Z,65.80
2022-12-01T15:53:22.645Z,71.88
2022-12-01T15:55:57.145Z,65.07
2022-12-01T15:58:28.072Z,69.35
2022-12-01T16:00:59.318Z,70.88
2022-12-01T16:03:27.468Z,75.95
2022-12-01T16:05:56.949Z,69.88
2022-12-01T16:08:26.496Z,74.65
2022-12-01T16:11:14.795Z,76.82
2022-12-01T16:15:18.405Z,153.18
2022-12-01T16:17:47.858Z,85.07
2022-12-01T16:20:33.614Z,80.68
2022-12-01T16:23:02.594Z,92.53
2022-12-01T16:25:34.679Z,80.70
2022-12-01T16:28:03.044Z,82.03
2022-12-01T16:30:36.773Z,81.17
2022-12-01T16:33:06.910Z,76.30
2022-12-01T16:35:35.063Z,81.30
2022-12-01T16:38:08.264Z,83.60
2022-12-01T16:41:50.412Z,82.35
2022-12-01T16:44:28.490Z,82.97
2022-12-01T16:46:56.816Z,84.63
2022-12-01T16:49:24.501Z,87.40
2022-12-01T16:52:43.833Z,87.05
2022-12-01T16:55:30.081Z,84.80
2022-12-01T16:57:57.740Z,88.47
2022-12-01T17:00:25.625Z,90.38
2022-12-01T17:02:53.593Z,85.72
2022-12-01T17:05:21.461Z,85.63
2022-12-01T17:07:50.551Z,83.00
2022-12-01T17:10:18.765Z,81.90
2022-12-01T17:12:46.316Z,85.78
2022-12-01T17:15:14.080Z,85.45
2022-12-01T17:17:41.700Z,84.15
2022-12-01T17:20:10.304Z,82.60
2022-12-01T17:22:38.297Z,85.82
2022-12-01T17:25:09.529Z,82.47
2022-12-01T17:27:37.310Z,83.28
2022-12-01T17:30:06.016Z,77.28
2022-12-01T17:32:33.725Z,84.43
2022-12-01T17:35:01.292Z,81.35
2022-12-01T17:37:28.973Z,82.97
2022-12-01T17:42:18.953Z,82.28
2022-12-01T17:44:46.668Z,83.57
2022-12-01T17:47:14.559Z,84.55
2022-12-01T17:49:42.379Z,82.50
2022-12-01T17:52:09.962Z,82.43
2022-12-01T17:54:38.253Z,83.28
2022-12-01T17:57:07.465Z,80.00
2022-12-01T17:59:37.436Z,84.23
2022-12-01T18:02:05.633Z,85.57
2022-12-01T18:04:33.472Z,84.70
2022-12-01T18:07:01.582Z,82.65
2022-12-01T18:09:29.158Z,82.53
2022-12-01T18:11:57.287Z,87.78
2022-12-01T18:14:25.450Z,83.55
2022-12-01T18:16:54.496Z,82.63
2022-12-01T18:19:22.160Z,80.05
2022-12-01T18:21:50.519Z,79.28
2022-12-01T18:24:18.186Z,77.60
2022-12-01T18:26:45.807Z,79.18
2022-12-01T18:30:35.023Z,72.90
2022-12-01T18:33:03.174Z,69.57
2022-12-01T18:35:32.092Z,72.07
2022-12-01T18:37:59.908Z,75.82
2022-12-01T18:40:27.571Z,70.35
2022-12-01T18:44:17.225Z,75.43
2022-12-01T18:46:45.095Z,73.57
2022-12-01T18:49:12.958Z,71.95
2022-12-01T18:51:40.975Z,73.57
2022-12-01T18:54:11.788Z,71.03
2022-12-01T18:56:39.462Z,77.45
2022-12-01T18:59:08.821Z,74.30
2022-12-01T19:01:40.428Z,71.68
2022-12-01T19:04:09.037Z,74.93
2022-12-01T19:06:37.995Z,81.05
2022-12-01T19:09:07.100Z,77.30
2022-12-01T19:11:34.712Z,78.47
2022-12-01T19:14:03.499Z,73.97
2022-12-01T19:16:31.632Z,77.50
2022-12-01T19:19:01.495Z,77.65
2022-12-01T19:21:29.150Z,80.20
2022-12-01T19:23:57.424Z,80.03
2022-12-01T19:26:25.942Z,85.68
2022-12-01T19:28:53.746Z,85.95
2022-12-01T19:31:23.503Z,87.68
2022-12-01T19:33:52.553Z,86.00
2022-12-01T19:36:23.009Z,81.20
2022-12-01T19:38:50.838Z,92.03
2022-12-01T19:41:20.447Z,89.28
2022-12-01T19:43:48.493Z,89.20
2022-12-01T19:46:18.143Z,89.88
2022-12-01T19:48:46.085Z,87.10
2022-12-01T19:51:18.339Z,96.88
2022-12-01T19:53:47.717Z,93.07
2022-12-01T19:56:15.534Z,90.75
2022-12-01T19:58:43.292Z,85.53
2022-12-01T20:01:13.391Z,91.68
2022-12-01T20:03:41.452Z,92.22
2022-12-01T20:06:11.276Z,97.60
2022-12-01T20:08:38.936Z,85.45
2022-12-01T20:11:08.516Z,85.15
2022-12-01T20:13:38.630Z,83.43
2022-12-01T20:16:08.077Z,81.22
2022-12-01T20:18:35.888Z,78.22
2022-12-01T20:21:05.368Z,77.00
2022-12-01T20:23:33.287Z,86.68
2022-12-01T20:26:02.028Z,86.93
2022-12-01T20:28:31.315Z,83.80
2022-12-01T20:30:59.426Z,78.95
2022-12-01T20:33:29.147Z,81.22
2022-12-01T20:35:56.866Z,75.90
2022-12-01T20:38:27.750Z,76.13
2022-12-01T20:40:55.600Z,80.47
2022-12-01T20:43:23.252Z,76.10
2022-12-01T20:45:52.378Z,73.07
2022-12-01T20:48:20.044Z,72.82
2022-12-01T20:50:47.869Z,71.85
2022-12-01T20:53:15.635Z,75.80
2022-12-01T20:55:43.246Z,69.72
2022-12-01T20:58:11.206Z,70.43
2022-12-01T21:00:40.049Z,71.63
2022-12-01T21:03:09.082Z,72.78
2022-12-01T21:05:39.791Z,66.63
2022-12-01T21:08:09.010Z,68.47
2022-12-01T21:10:37.644Z,68.82
2022-12-01T21:13:34.102Z,69.10
2022-12-01T21:16:05.808Z,68.03
2022-12-01T21:18:43.609Z,72.43
2022-12-01T21:23:43.977Z,68.90
2022-12-01T21:26:15.551Z,64.38
2022-12-01T21:28:44.852Z,67.18
2022-12-01T21:31:14.945Z,67.63
2022-12-01T21:33:44.052Z,71.88
2022-12-01T21:36:16.610Z,70.35
2022-12-01T21:38:44.486Z,67.03
2022-12-01T21:41:25.006Z,65.63
2022-12-01T21:43:52.957Z,64.35
2022-12-01T21:46:20.659Z,60.97
2022-12-01T21:48:50.383Z,61.47
2022-12-01T21:51:22.858Z,65.05
2022-12-01T21:53:51.667Z,64.15
2022-12-01T21:56:22.310Z,60.63
2022-12-01T21:58:50.160Z,60.28
2022-12-01T22:01:21.714Z,56.92
2022-12-01T22:03:51.128Z,55.97
2022-12-01T22:06:31.568Z,59.83
2022-12-01T22:09:01.656Z,59.85
2022-12-01T22:11:30.854Z,60.83
2022-12-01T22:14:02.509Z,57.53
2022-12-01T22:16:32.109Z,57.95
2022-12-01T22:19:02.772Z,60.90
2022-12-01T22:21:36.474Z,56.75
2022-12-01T22:24:22.492Z,58.97
2022-12-01T22:26:52.115Z,57.67
2022-12-01T22:29:27.965Z,56.10
2022-12-01T22:32:40.622Z,58.58
2022-12-01T22:35:23.248Z,60.55
2022-12-01T22:37:52.329Z,55.58
2022-12-01T22:40:40.599Z,60.78
2022-12-01T22:43:21.251Z,55.67
2022-12-01T22:45:50.818Z,56.17
2022-12-01T22:48:29.423Z,52.95
2022-12-01T22:51:01.313Z,49.15
2022-12-01T22:53:31.846Z,51.00
2022-12-01T22:56:01.924Z,47.20
2022-12-01T22:58:31.862Z,47.75
2022-12-01T23:01:02.929Z,47.13
2022-12-01T23:03:30.587Z,50.20
2022-12-01T23:05:59.669Z,48.75
2022-12-01T23:08:27.305Z,48.20
2022-12-01T23:10:54.988Z,50.42
2022-12-01T23:13:24.045Z,52.78
2022-12-01T23:15:53.615Z,52.13
2022-12-01T23:18:22.800Z,52.45
2022-12-01T23:20:51.886Z,53.97
2022-12-01T23:23:23.185Z,58.67
2022-12-01T23:25:51.787Z,58.05
2022-12-01T23:28:20.060Z,53.60
2022-12-01T23:30:49.944Z,53.80
2022-12-01T23:33:20.499Z,54.25
2022-12-01T23:35:52.245Z,52.63
2022-12-01T23:38:23.968Z,52.13
2022-12-01T23:40:53.164Z,50.90
2022-12-01T23:43:22.523Z,50.20
2022-12-01T23:45:52.572Z,48.75
2022-12-01T23:48:22.006Z,48.75
2022-12-01T23:50:50.909Z,49.40
2022-12-01T23:53:28.640Z,48.35
2022-12-01T23:55:57.113Z,47.10
2022-12-01T23:58:24.751Z,43.35
